sensor_id;sensor_type;location;lat;lon;timestamp;temperature;humidity
71649;SHT31;70112;45.624;11.760;2023-10-19T00:00:41;13.76;76.79
71649;SHT31;70112;45.624;11.760;2023-10-19T00:03:11;13.77;76.77
71649;SHT31;70112;45.624;11.760;2023-10-19T00:05:37;13.74;76.74
71649;SHT31;70112;45.624;11.760;2023-10-19T00:08:04;13.74;76.85
71649;SHT31;70112;45.624;11.760;2023-10-19T00:10:48;13.77;77.01
71649;SHT31;70112;45.624;11.760;2023-10-19T00:13:36;13.86;76.99
71649;SHT31;70112;45.624;11.760;2023-10-19T00:16:04;13.88;76.90
71649;SHT31;70112;45.624;11.760;2023-10-19T00:18:41;13.87;76.93
71649;SHT31;70112;45.624;11.760;2023-10-19T00:21:08;13.83;77.03
71649;SHT31;70112;45.624;11.760;2023-10-19T00:23:50;13.78;77.00
71649;SHT31;70112;45.624;11.760;2023-10-19T00:26:22;13.78;77.09
71649;SHT31;70112;45.624;11.760;2023-10-19T00:28:51;13.76;77.17
71649;SHT31;70112;45.624;11.760;2023-10-19T00:31:27;13.75;77.29
71649;SHT31;70112;45.624;11.760;2023-10-19T00:33:53;13.75;77.40
71649;SHT31;70112;45.624;11.760;2023-10-19T00:36:20;13.76;77.31
71649;SHT31;70112;45.624;11.760;2023-10-19T00:38:47;13.77;77.29
71649;SHT31;70112;45.624;11.760;2023-10-19T00:41:17;13.81;77.28
71649;SHT31;70112;45.624;11.760;2023-10-19T00:43:55;13.82;77.30
71649;SHT31;70112;45.624;11.760;2023-10-19T00:46:35;13.83;77.39
71649;SHT31;70112;45.624;11.760;2023-10-19T00:49:08;13.86;77.42
71649;SHT31;70112;45.624;11.760;2023-10-19T00:51:41;13.89;77.39
71649;SHT31;70112;45.624;11.760;2023-10-19T00:54:25;13.88;77.37
71649;SHT31;70112;45.624;11.760;2023-10-19T00:57:00;13.88;77.42
71649;SHT31;70112;45.624;11.760;2023-10-19T00:59:41;13.90;77.47
71649;SHT31;70112;45.624;11.760;2023-10-19T01:02:19;13.93;77.40
71649;SHT31;70112;45.624;11.760;2023-10-19T01:04:49;13.96;77.37
71649;SHT31;70112;45.624;11.760;2023-10-19T01:07:29;13.97;77.39
71649;SHT31;70112;45.624;11.760;2023-10-19T01:09:56;13.97;77.39
71649;SHT31;70112;45.624;11.760;2023-10-19T01:12:24;13.95;77.41
71649;SHT31;70112;45.624;11.760;2023-10-19T01:20:16;13.89;77.49
71649;SHT31;70112;45.624;11.760;2023-10-19T01:22:55;13.91;77.43
71649;SHT31;70112;45.624;11.760;2023-10-19T01:28:24;13.94;77.46
71649;SHT31;70112;45.624;11.760;2023-10-19T01:31:06;13.90;77.56
71649;SHT31;70112;45.624;11.760;2023-10-19T01:33:32;13.89;77.65
71649;SHT31;70112;45.624;11.760;2023-10-19T01:36:01;13.94;77.67
71649;SHT31;70112;45.624;11.760;2023-10-19T01:38:36;13.95;77.69
71649;SHT31;70112;45.624;11.760;2023-10-19T01:41:03;13.96;77.58
71649;SHT31;70112;45.624;11.760;2023-10-19T01:43:41;13.96;77.50
71649;SHT31;70112;45.624;11.760;2023-10-19T01:46:09;13.93;77.55
71649;SHT31;70112;45.624;11.760;2023-10-19T01:48:39;13.89;77.62
71649;SHT31;70112;45.624;11.760;2023-10-19T01:51:06;13.89;77.72
71649;SHT31;70112;45.624;11.760;2023-10-19T01:53:36;13.89;77.79
71649;SHT31;70112;45.624;11.760;2023-10-19T01:56:12;13.90;77.88
71649;SHT31;70112;45.624;11.760;2023-10-19T01:58:40;13.90;77.95
71649;SHT31;70112;45.624;11.760;2023-10-19T02:01:11;13.91;77.98
71649;SHT31;70112;45.624;11.760;2023-10-19T02:03:38;13.91;77.83
71649;SHT31;70112;45.624;11.760;2023-10-19T02:06:11;13.90;77.89
71649;SHT31;70112;45.624;11.760;2023-10-19T02:08:46;13.91;77.89
71649;SHT31;70112;45.624;11.760;2023-10-19T02:11:14;13.93;77.82
71649;SHT31;70112;45.624;11.760;2023-10-19T02:13:44;13.93;77.80
71649;SHT31;70112;45.624;11.760;2023-10-19T02:16:12;13.94;77.80
71649;SHT31;70112;45.624;11.760;2023-10-19T02:18:42;13.97;77.80
71649;SHT31;70112;45.624;11.760;2023-10-19T02:21:09;13.99;77.80
71649;SHT31;70112;45.624;11.760;2023-10-19T02:23:37;14.03;77.84
71649;SHT31;70112;45.624;11.760;2023-10-19T02:26:05;14.04;77.80
71649;SHT31;70112;45.624;11.760;2023-10-19T02:28:31;14.04;77.82
71649;SHT31;70112;45.624;11.760;2023-10-19T02:31:00;14.03;77.90
71649;SHT31;70112;45.624;11.760;2023-10-19T02:33:36;13.98;77.92
71649;SHT31;70112;45.624;11.760;2023-10-19T02:36:03;13.95;78.04
71649;SHT31;70112;45.624;11.760;2023-10-19T02:38:29;13.94;78.10
71649;SHT31;70112;45.624;11.760;2023-10-19T02:40:55;13.95;78.17
71649;SHT31;70112;45.624;11.760;2023-10-19T02:43:21;13.94;78.19
71649;SHT31;70112;45.624;11.760;2023-10-19T02:45:49;13.93;78.27
71649;SHT31;70112;45.624;11.760;2023-10-19T02:48:14;13.94;78.31
71649;SHT31;70112;45.624;11.760;2023-10-19T02:50:41;13.95;78.24
71649;SHT31;70112;45.624;11.760;2023-10-19T02:53:06;13.95;78.17
71649;SHT31;70112;45.624;11.760;2023-10-19T02:55:32;13.96;78.11
71649;SHT31;70112;45.624;11.760;2023-10-19T02:57:57;13.96;78.19
71649;SHT31;70112;45.624;11.760;2023-10-19T03:00:24;13.97;78.21
71649;SHT31;70112;45.624;11.760;2023-10-19T03:02:58;13.97;78.23
71649;SHT31;70112;45.624;11.760;2023-10-19T03:05:25;13.98;78.29
71649;SHT31;70112;45.624;11.760;2023-10-19T03:07:52;13.97;78.32
71649;SHT31;70112;45.624;11.760;2023-10-19T03:10:18;13.98;78.37
71649;SHT31;70112;45.624;11.760;2023-10-19T03:12:59;14.01;78.37
71649;SHT31;70112;45.624;11.760;2023-10-19T03:15:29;14.01;78.43
71649;SHT31;70112;45.624;11.760;2023-10-19T03:17:58;14.03;78.50
71649;SHT31;70112;45.624;11.760;2023-10-19T03:20:27;14.06;78.47
71649;SHT31;70112;45.624;11.760;2023-10-19T03:22:57;14.08;78.50
71649;SHT31;70112;45.624;11.760;2023-10-19T03:25:26;14.10;78.48
71649;SHT31;70112;45.624;11.760;2023-10-19T03:28:10;14.11;78.46
71649;SHT31;70112;45.624;11.760;2023-10-19T03:30:41;14.12;78.42
71649;SHT31;70112;45.624;11.760;2023-10-19T03:33:07;14.14;78.40
71649;SHT31;70112;45.624;11.760;2023-10-19T03:35:37;14.14;78.42
71649;SHT31;70112;45.624;11.760;2023-10-19T03:38:06;14.12;78.35
71649;SHT31;70112;45.624;11.760;2023-10-19T03:40:41;14.11;78.38
71649;SHT31;70112;45.624;11.760;2023-10-19T03:43:12;14.13;78.44
71649;SHT31;70112;45.624;11.760;2023-10-19T03:45:47;14.13;78.50
71649;SHT31;70112;45.624;11.760;2023-10-19T03:48:19;14.14;78.50
71649;SHT31;70112;45.624;11.760;2023-10-19T03:50:52;14.14;78.50
71649;SHT31;70112;45.624;11.760;2023-10-19T03:53:20;14.13;78.50
71649;SHT31;70112;45.624;11.760;2023-10-19T03:55:47;14.15;78.51
71649;SHT31;70112;45.624;11.760;2023-10-19T03:58:15;14.16;78.50
71649;SHT31;70112;45.624;11.760;2023-10-19T04:00:41;14.14;78.54
71649;SHT31;70112;45.624;11.760;2023-10-19T04:03:07;14.13;78.59
71649;SHT31;70112;45.624;11.760;2023-10-19T04:05:33;14.11;78.62
71649;SHT31;70112;45.624;11.760;2023-10-19T04:08:04;14.10;78.70
71649;SHT31;70112;45.624;11.760;2023-10-19T04:10:38;14.12;78.78
71649;SHT31;70112;45.624;11.760;2023-10-19T04:13:09;14.13;78.82
71649;SHT31;70112;45.624;11.760;2023-10-19T04:15:36;14.13;78.86
71649;SHT31;70112;45.624;11.760;2023-10-19T04:18:02;14.15;78.86
71649;SHT31;70112;45.624;11.760;2023-10-19T04:20:36;14.15;78.89
71649;SHT31;70112;45.624;11.760;2023-10-19T04:23:19;14.16;78.89
71649;SHT31;70112;45.624;11.760;2023-10-19T04:25:57;14.20;78.84
71649;SHT31;70112;45.624;11.760;2023-10-19T04:28:23;14.24;78.81
71649;SHT31;70112;45.624;11.760;2023-10-19T04:30:58;14.26;78.80
71649;SHT31;70112;45.624;11.760;2023-10-19T04:33:31;14.28;78.79
71649;SHT31;70112;45.624;11.760;2023-10-19T04:35:59;14.26;78.78
71649;SHT31;70112;45.624;11.760;2023-10-19T04:38:29;14.25;78.73
71649;SHT31;70112;45.624;11.760;2023-10-19T04:41:08;14.24;78.79
71649;SHT31;70112;45.624;11.760;2023-10-19T04:43:35;14.25;78.86
71649;SHT31;70112;45.624;11.760;2023-10-19T04:46:10;14.25;78.85
71649;SHT31;70112;45.624;11.760;2023-10-19T04:48:37;14.23;78.88
71649;SHT31;70112;45.624;11.760;2023-10-19T04:51:05;14.22;78.94
71649;SHT31;70112;45.624;11.760;2023-10-19T04:53:34;14.23;79.02
71649;SHT31;70112;45.624;11.760;2023-10-19T04:56:00;14.24;79.02
71649;SHT31;70112;45.624;11.760;2023-10-19T04:58:28;14.27;78.97
71649;SHT31;70112;45.624;11.760;2023-10-19T05:00:55;14.31;78.90
71649;SHT31;70112;45.624;11.760;2023-10-19T05:03:23;14.33;78.92
71649;SHT31;70112;45.624;11.760;2023-10-19T05:05:49;14.34;78.83
71649;SHT31;70112;45.624;11.760;2023-10-19T05:08:15;14.36;78.80
71649;SHT31;70112;45.624;11.760;2023-10-19T05:10:40;14.37;78.76
71649;SHT31;70112;45.624;11.760;2023-10-19T05:13:07;14.37;78.75
71649;SHT31;70112;45.624;11.760;2023-10-19T05:15:33;14.38;78.70
71649;SHT31;70112;45.624;11.760;2023-10-19T05:17:59;14.40;78.69
71649;SHT31;70112;45.624;11.760;2023-10-19T05:20:26;14.42;78.77
71649;SHT31;70112;45.624;11.760;2023-10-19T05:22:52;14.43;78.84
71649;SHT31;70112;45.624;11.760;2023-10-19T05:25:17;14.45;78.71
71649;SHT31;70112;45.624;11.760;2023-10-19T05:27:42;14.47;78.71
